Time;durP1;ratioP1;P1;durP2;ratioP2;P2;SDS_P1;SDS_P2;PMS_P1;PMS_P2;Temp;Humidity;BMP_temperature;BMP_pressure;BME280_temperature;BME280_humidity;BME280_pressure;Samples;Min_cycle;Max_cycle;Signal;HPM_P1;HPM_P2
2021/07/02 00:02:18;;;;;;;8.37;5.80;;;13.90;99.90;;;;;;4961390;28;20189;-94
2021/07/02 00:04:44;;;;;;;9.47;5.90;;;13.80;99.90;;;;;;4963388;28;20194;-94
2021/07/02 00:07:09;;;;;;;8.67;6.40;;;13.90;99.90;;;;;;4971790;28;20648;-94
2021/07/02 00:09:35;;;;;;;6.30;5.60;;;14.00;99.90;;;;;;4975912;28;20197;-94
2021/07/02 00:12:01;;;;;;;7.37;6.57;;;13.90;99.90;;;;;;4958810;28;20186;-93
2021/07/02 00:14:26;;;;;;;7.70;5.80;;;13.90;99.90;;;;;;4956885;28;20190;-95
2021/07/02 00:16:52;;;;;;;7.70;5.67;;;14.00;99.90;;;;;;4961909;28;20182;-93
2021/07/02 00:19:19;;;;;;;6.93;6.23;;;13.80;99.90;;;;;;4956272;28;20317;-93
2021/07/02 00:21:45;;;;;;;7.27;4.80;;;13.80;99.90;;;;;;4971582;28;20186;-94
2021/07/02 00:24:11;;;;;;;7.00;6.27;;;13.70;99.90;;;;;;4971886;28;20481;-94
2021/07/02 00:26:36;;;;;;;7.60;6.70;;;13.80;99.90;;;;;;4969913;28;20576;-93
2021/07/02 00:29:05;;;;;;;7.37;5.80;;;13.80;99.90;;;;;;4958635;28;20225;-94
2021/07/02 00:31:31;;;;;;;7.03;6.33;;;13.80;99.90;;;;;;4973870;28;20284;-91
2021/07/02 00:33:57;;;;;;;10.40;6.53;;;13.70;99.90;;;;;;4956570;28;20671;-94
2021/07/02 00:36:23;;;;;;;6.20;5.60;;;13.70;99.90;;;;;;4974339;28;20193;-93
2021/07/02 00:38:48;;;;;;;7.67;6.20;;;13.60;99.90;;;;;;4973661;28;20714;-93
2021/07/02 00:41:14;;;;;;;9.00;6.00;;;13.60;99.90;;;;;;4953941;28;20194;-93
2021/07/02 00:43:51;;;;;;;6.60;5.90;;;13.60;99.90;;;;;;4971962;28;20196;-95
2021/07/02 00:46:17;;;;;;;6.60;5.40;;;13.60;99.90;;;;;;4971910;28;20481;-95
2021/07/02 00:48:43;;;;;;;6.97;5.43;;;13.50;99.90;;;;;;4960086;28;20536;-93
2021/07/02 00:51:09;;;;;;;10.70;6.60;;;13.50;99.90;;;;;;4970218;28;20477;-93
2021/07/02 00:53:35;;;;;;;6.73;5.93;;;13.60;99.90;;;;;;4956133;28;20260;-91
2021/07/02 00:56:01;;;;;;;6.50;5.90;;;13.50;99.90;;;;;;4954717;28;20621;-92
2021/07/02 00:58:33;;;;;;;7.60;6.17;;;13.50;99.90;;;;;;4959482;28;20233;-92
2021/07/02 01:00:59;;;;;;;6.80;5.63;;;13.50;99.90;;;;;;4972749;28;20491;-93
2021/07/02 01:03:25;;;;;;;7.93;6.23;;;13.40;99.90;;;;;;4973085;28;20499;-93
2021/07/02 01:05:51;;;;;;;7.13;6.27;;;13.40;99.90;;;;;;4955977;28;20540;-93
2021/07/02 01:08:17;;;;;;;7.93;5.90;;;13.30;99.90;;;;;;4972235;28;20572;-93
2021/07/02 01:10:43;;;;;;;7.17;5.40;;;13.30;99.90;;;;;;4959248;28;20461;-93
2021/07/02 01:13:09;;;;;;;7.67;5.93;;;13.30;99.90;;;;;;4958136;28;20529;-95
2021/07/02 01:15:35;;;;;;;6.90;6.10;;;13.20;99.90;;;;;;4974823;28;20449;-95
2021/07/02 01:18:05;;;;;;;6.60;5.90;;;13.10;99.90;;;;;;4961096;28;20458;-94
2021/07/02 01:20:31;;;;;;;9.33;5.77;;;13.20;99.90;;;;;;4978388;28;20632;-95
2021/07/02 01:22:57;;;;;;;6.23;5.63;;;13.10;99.90;;;;;;4962169;28;21272;-94
2021/07/02 01:25:32;;;;;;;7.63;6.83;;;13.20;99.90;;;;;;4960984;28;20194;-96
2021/07/02 01:28:01;;;;;;;11.07;5.83;;;13.10;99.90;;;;;;4976320;28;20484;-95
2021/07/02 01:30:27;;;;;;;6.43;5.67;;;13.10;99.90;;;;;;4976623;28;20442;-94
2021/07/02 01:32:53;;;;;;;7.93;6.20;;;13.20;99.90;;;;;;4977584;28;20446;-95
2021/07/02 01:35:19;;;;;;;6.00;5.40;;;13.20;99.90;;;;;;4976275;28;23993;-96
2021/07/02 01:37:46;;;;;;;7.67;5.90;;;13.20;99.90;;;;;;4977628;28;20484;-94
2021/07/02 01:40:13;;;;;;;12.10;6.60;;;13.20;99.90;;;;;;4963990;28;20520;-94
2021/07/02 01:42:39;;;;;;;7.40;5.90;;;13.10;99.90;;;;;;4978258;28;20455;-94
2021/07/02 01:45:06;;;;;;;8.87;7.50;;;13.10;99.90;;;;;;4960896;28;20452;-95
2021/07/02 01:47:32;;;;;;;8.70;6.17;;;13.10;99.90;;;;;;4963596;28;20567;-93
2021/07/02 01:49:58;;;;;;;10.10;5.80;;;13.10;99.90;;;;;;4965215;28;20876;-93
2021/07/02 01:52:23;;;;;;;6.73;6.03;;;13.10;99.90;;;;;;4976262;28;21202;-93
2021/07/02 01:54:49;;;;;;;8.67;6.80;;;13.10;99.90;;;;;;4955448;28;20240;-93
2021/07/02 01:57:26;;;;;;;7.00;6.10;;;13.00;99.90;;;;;;4972653;28;21338;-92
2021/07/02 01:59:52;;;;;;;8.40;6.37;;;13.00;99.90;;;;;;4976737;28;20205;-95
2021/07/02 02:02:18;;;;;;;8.07;6.10;;;13.00;99.90;;;;;;4957234;28;20472;-93
2021/07/02 02:04:44;;;;;;;6.57;5.90;;;13.00;99.90;;;;;;4974062;28;20469;-92
2021/07/02 02:07:10;;;;;;;8.00;6.50;;;13.10;99.90;;;;;;4962856;28;20441;-93
2021/07/02 02:09:36;;;;;;;6.47;5.17;;;13.00;99.90;;;;;;4959721;28;20190;-93
2021/07/02 02:12:02;;;;;;;9.93;6.50;;;12.90;99.90;;;;;;4961721;28;20449;-94
2021/07/02 02:14:28;;;;;;;7.10;6.40;;;12.90;99.90;;;;;;4961777;28;20190;-93
2021/07/02 02:16:54;;;;;;;7.33;6.37;;;12.80;99.90;;;;;;4975803;28;20480;-94
2021/07/02 02:19:20;;;;;;;11.60;7.23;;;12.80;99.90;;;;;;4959465;28;20193;-95
2021/07/02 02:21:46;;;;;;;8.77;7.87;;;12.70;99.90;;;;;;4977413;28;20971;-96
2021/07/02 02:24:12;;;;;;;7.67;6.27;;;12.70;99.90;;;;;;4963650;28;20198;-96
2021/07/02 02:26:38;;;;;;;11.97;6.50;;;12.70;99.90;;;;;;4977703;28;20730;-93
2021/07/02 02:29:03;;;;;;;7.80;6.63;;;12.70;99.90;;;;;;4975150;28;20222;-93
2021/07/02 02:31:29;;;;;;;6.30;5.70;;;12.70;99.90;;;;;;4957531;28;20294;-96
2021/07/02 02:33:55;;;;;;;8.60;6.20;;;12.60;99.90;;;;;;4963186;28;20663;-95
2021/07/02 02:36:21;;;;;;;10.10;6.50;;;12.70;99.90;;;;;;4962865;28;20920;-95
2021/07/02 02:38:47;;;;;;;8.70;6.80;;;12.70;99.90;;;;;;4980019;28;20194;-96
2021/07/02 02:41:13;;;;;;;8.00;6.37;;;12.70;99.90;;;;;;4966030;28;20388;-96
2021/07/02 02:43:39;;;;;;;8.30;6.60;;;12.70;99.90;;;;;;4962595;28;20457;-95
2021/07/02 02:46:06;;;;;;;9.20;6.47;;;12.70;99.90;;;;;;4947399;28;20214;-95
2021/07/02 02:48:32;;;;;;;11.00;6.70;;;12.50;99.90;;;;;;4978412;28;21124;-94
2021/07/02 02:50:58;;;;;;;8.10;6.87;;;12.50;99.90;;;;;;4976643;28;20213;-95
2021/07/02 02:53:25;;;;;;;14.37;7.73;;;12.50;99.90;;;;;;4957839;28;20225;-93
2021/07/02 02:55:50;;;;;;;9.10;7.00;;;12.40;99.90;;;;;;4977080;28;20441;-93
2021/07/02 02:58:16;;;;;;;9.53;6.47;;;12.30;99.90;;;;;;4952822;28;20461;-93
2021/07/02 03:00:42;;;;;;;10.03;7.30;;;12.40;99.90;;;;;;4957817;28;20664;-92
2021/07/02 03:03:07;;;;;;;8.30;6.73;;;12.30;99.90;;;;;;4955344;28;20252;-91
2021/07/02 03:05:33;;;;;;;8.83;6.77;;;12.30;99.90;;;;;;4958172;28;20191;-92
2021/07/02 03:07:59;;;;;;;13.50;7.67;;;12.30;99.90;;;;;;4973749;28;20229;-92
2021/07/02 03:10:25;;;;;;;10.13;7.60;;;12.30;99.90;;;;;;4972489;28;20186;-91
2021/07/02 03:12:51;;;;;;;13.00;8.27;;;12.30;99.90;;;;;;4955293;28;21064;-92
2021/07/02 03:15:17;;;;;;;8.87;7.63;;;12.30;99.90;;;;;;4954924;28;20231;-91
2021/07/02 03:17:42;;;;;;;12.33;7.20;;;12.30;99.90;;;;;;4958421;28;20437;-92
2021/07/02 03:20:10;;;;;;;10.17;8.60;;;12.20;99.90;;;;;;4973528;28;20453;-92
2021/07/02 03:22:37;;;;;;;12.00;7.53;;;12.30;99.90;;;;;;4973569;28;20178;-92
2021/07/02 03:25:05;;;;;;;9.60;7.60;;;12.20;99.90;;;;;;4968753;28;20508;-93
2021/07/02 03:27:31;;;;;;;9.77;7.13;;;12.20;99.90;;;;;;4972195;28;20983;-91
2021/07/02 03:29:57;;;;;;;10.73;7.73;;;12.20;99.90;;;;;;4956715;28;20478;-92
2021/07/02 03:32:23;;;;;;;12.37;8.20;;;12.20;99.90;;;;;;4954046;28;20550;-92
2021/07/02 03:34:48;;;;;;;10.57;7.70;;;12.20;99.90;;;;;;4959551;28;20245;-91
2021/07/02 03:37:16;;;;;;;12.60;8.03;;;12.20;99.90;;;;;;4955931;28;20672;-93
2021/07/02 03:39:42;;;;;;;9.63;8.03;;;12.20;99.90;;;;;;4973766;28;20244;-93
2021/07/02 03:42:08;;;;;;;9.27;7.50;;;12.10;99.90;;;;;;4972479;28;20623;-94
2021/07/02 03:44:34;;;;;;;10.47;7.30;;;12.10;99.90;;;;;;4973705;28;20536;-93
2021/07/02 03:47:00;;;;;;;11.20;8.20;;;12.00;99.90;;;;;;4976550;28;20449;-93
2021/07/02 03:49:26;;;;;;;10.33;8.27;;;12.00;99.90;;;;;;4974080;28;20217;-93
2021/07/02 03:51:52;;;;;;;9.90;7.93;;;12.00;99.90;;;;;;4950592;28;20450;-94
2021/07/02 03:54:18;;;;;;;9.50;8.10;;;12.00;99.90;;;;;;4967707;28;20458;-92
2021/07/02 03:59:28;;;;;;;10.80;7.70;;;12.00;99.90;;;;;;4955895;28;20220;-91
2021/07/02 04:01:55;;;;;;;10.97;7.50;;;12.00;99.90;;;;;;4953872;28;21061;-92
2021/07/02 04:04:21;;;;;;;9.80;7.63;;;12.00;99.90;;;;;;4974701;28;20460;-92
2021/07/02 04:06:47;;;;;;;9.50;7.73;;;12.00;99.90;;;;;;4958440;28;20462;-90
2021/07/02 04:09:12;;;;;;;8.80;7.30;;;12.10;99.90;;;;;;4954525;28;20544;-91
2021/07/02 04:11:38;;;;;;;10.57;7.40;;;12.20;99.90;;;;;;4960719;28;20438;-91
2021/07/02 04:14:04;;;;;;;9.10;8.03;;;12.20;99.90;;;;;;4973667;28;20194;-93
2021/07/02 04:16:30;;;;;;;10.60;7.30;;;12.30;99.90;;;;;;4959213;28;20210;-92
2021/07/02 04:18:56;;;;;;;9.60;7.77;;;12.40;99.90;;;;;;4954700;28;20239;-92
2021/07/02 04:21:22;;;;;;;9.47;7.70;;;12.40;99.90;;;;;;4956624;28;20469;-92
2021/07/02 04:23:47;;;;;;;14.97;7.80;;;12.50;99.90;;;;;;4957549;28;20648;-93
2021/07/02 04:26:15;;;;;;;10.47;7.83;;;12.50;99.90;;;;;;4957281;28;20486;-91
2021/07/02 04:28:40;;;;;;;9.97;7.47;;;12.50;99.90;;;;;;4941842;28;20540;-91
2021/07/02 04:31:07;;;;;;;14.37;7.90;;;12.50;99.90;;;;;;4969724;28;20455;-90
2021/07/02 04:33:32;;;;;;;9.80;7.53;;;12.60;99.90;;;;;;4954701;28;20197;-90
2021/07/02 04:35:58;;;;;;;14.53;8.40;;;12.60;99.90;;;;;;4969503;28;20961;-92
2021/07/02 04:38:26;;;;;;;8.67;7.57;;;12.70;99.90;;;;;;4956914;28;20999;-95
2021/07/02 04:40:55;;;;;;;10.80;8.23;;;12.60;99.90;;;;;;4955874;28;21074;-92
2021/07/02 04:43:23;;;;;;;9.30;7.90;;;12.60;99.90;;;;;;4954294;28;20804;-91
2021/07/02 04:45:49;;;;;;;13.80;8.20;;;12.70;99.90;;;;;;4973329;28;20578;-93
2021/07/02 04:48:19;;;;;;;10.50;8.40;;;12.70;99.90;;;;;;4974006;28;20531;-92
2021/07/02 04:50:45;;;;;;;10.30;8.37;;;12.80;99.90;;;;;;4957789;28;20194;-93
2021/07/02 04:53:11;;;;;;;9.70;6.97;;;12.90;99.90;;;;;;4954672;28;20465;-93
2021/07/02 04:55:36;;;;;;;10.40;7.13;;;13.00;99.90;;;;;;4958802;28;20190;-92
2021/07/02 04:58:06;;;;;;;11.80;7.40;;;13.00;99.90;;;;;;4958119;28;20201;-93
2021/07/02 05:00:31;;;;;;;10.33;7.83;;;13.10;99.90;;;;;;4958276;28;20202;-95
2021/07/02 05:02:57;;;;;;;10.20;8.10;;;13.10;99.90;;;;;;4978659;28;20448;-93
2021/07/02 05:05:32;;;;;;;9.53;8.10;;;13.20;99.90;;;;;;4964652;28;20198;-93
2021/07/02 05:07:59;;;;;;;7.97;7.13;;;13.30;99.90;;;;;;4965404;28;20494;-96
2021/07/02 05:10:24;;;;;;;10.53;7.50;;;13.30;99.90;;;;;;4962569;28;20445;-95
2021/07/02 05:13:00;;;;;;;7.87;7.07;;;13.30;99.90;;;;;;4965465;28;20449;-96
2021/07/02 05:15:26;;;;;;;9.70;7.73;;;13.40;99.90;;;;;;4964815;28;20457;-95
2021/07/02 05:17:53;;;;;;;10.10;8.30;;;13.50;99.90;;;;;;4969616;28;20980;-96
2021/07/02 05:20:19;;;;;;;9.77;7.50;;;13.30;99.90;;;;;;4965598;28;20301;-91
2021/07/02 05:22:45;;;;;;;13.70;8.50;;;13.20;99.90;;;;;;4962125;28;20469;-93
2021/07/02 05:25:11;;;;;;;10.50;8.33;;;13.10;99.90;;;;;;4971602;28;20190;-92
2021/07/02 05:27:37;;;;;;;8.90;7.80;;;13.00;99.90;;;;;;4975687;28;20305;-90
2021/07/02 05:30:04;;;;;;;9.20;8.30;;;13.00;99.90;;;;;;4968425;28;20198;-96
2021/07/02 05:32:30;;;;;;;10.63;8.47;;;12.90;99.90;;;;;;5048212;23;21413;-96
2021/07/02 05:35:11;;;;;;;10.07;8.37;;;13.00;99.90;;;;;;4967578;28;20465;-95
2021/07/02 05:37:44;;;;;;;13.33;8.63;;;13.10;99.90;;;;;;4980676;28;20186;-95
2021/07/02 05:40:17;;;;;;;11.37;8.10;;;13.20;99.90;;;;;;5025174;23;20457;-96
2021/07/02 05:50:29;;;;;;;8.87;7.50;;;13.70;99.90;;;;;;4969048;28;20858;-96
2021/07/02 05:55:35;;;;;;;9.23;7.07;;;13.70;99.90;;;;;;4999036;23;21066;-95
2021/07/02 05:58:03;;;;;;;7.83;7.00;;;13.70;99.90;;;;;;4977653;28;20441;-95
2021/07/02 06:00:35;;;;;;;8.83;7.27;;;13.90;99.90;;;;;;4967429;28;20472;-96
2021/07/02 06:03:24;;;;;;;9.20;7.53;;;14.10;99.90;;;;;;4959052;28;20462;-95
2021/07/02 06:06:08;;;;;;;10.87;8.13;;;14.20;99.90;;;;;;4952333;28;20461;-94
2021/07/02 06:08:34;;;;;;;8.87;7.30;;;14.30;99.90;;;;;;4977723;28;20525;-87
2021/07/02 06:11:00;;;;;;;8.30;7.37;;;14.30;99.90;;;;;;4960889;28;20489;-88
2021/07/02 06:13:28;;;;;;;9.70;7.70;;;14.40;99.90;;;;;;4933944;28;20951;-87
2021/07/02 06:15:56;;;;;;;7.93;6.80;;;14.60;99.90;;;;;;4944360;28;20473;-87
2021/07/02 06:18:22;;;;;;;7.67;6.77;;;14.70;99.90;;;;;;4956563;28;20461;-88
2021/07/02 06:20:52;;;;;;;9.90;7.13;;;14.80;99.90;;;;;;4942815;28;20454;-86
2021/07/02 06:23:21;;;;;;;8.40;6.90;;;15.00;99.90;;;;;;4957099;28;20210;-88
2021/07/02 06:25:48;;;;;;;8.70;7.20;;;15.00;99.90;;;;;;4940804;28;20859;-87
2021/07/02 06:28:14;;;;;;;9.73;7.17;;;15.10;99.90;;;;;;4957159;28;20480;-89
2021/07/02 06:30:40;;;;;;;17.50;7.27;;;15.10;99.90;;;;;;4958793;28;20533;-88
2021/07/02 06:33:15;;;;;;;11.60;7.60;;;15.40;99.90;;;;;;4939967;28;20655;-87
2021/07/02 06:35:40;;;;;;;10.00;7.70;;;15.40;99.90;;;;;;4955370;28;21011;-88
2021/07/02 06:38:35;;;;;;;9.10;6.67;;;15.50;99.90;;;;;;4933178;28;20473;-89
2021/07/02 06:41:01;;;;;;;11.53;6.47;;;15.60;99.90;;;;;;4939178;28;20445;-89
2021/07/02 06:43:27;;;;;;;9.57;7.40;;;15.70;99.90;;;;;;4936751;28;20463;-88
2021/07/02 06:46:01;;;;;;;8.17;7.37;;;15.80;99.90;;;;;;4943662;28;22489;-88
2021/07/02 06:51:21;;;;;;;7.90;7.10;;;16.00;99.90;;;;;;4929797;28;20517;-88
2021/07/02 06:53:49;;;;;;;8.60;6.80;;;16.10;99.90;;;;;;4950687;28;20490;-90
2021/07/02 06:56:15;;;;;;;12.17;7.80;;;16.10;99.90;;;;;;4940797;28;20201;-90
2021/07/02 06:58:44;;;;;;;8.90;7.07;;;16.10;99.90;;;;;;4943036;28;20465;-88
2021/07/02 07:01:11;;;;;;;10.17;7.60;;;16.30;99.90;;;;;;4943408;28;20442;-93
2021/07/02 07:04:03;;;;;;;12.10;7.60;;;16.40;99.90;;;;;;4940318;28;20877;-93
2021/07/02 07:06:34;;;;;;;12.10;7.00;;;16.50;99.90;;;;;;4955308;28;20449;-94
2021/07/02 07:09:00;;;;;;;8.40;6.43;;;16.50;99.90;;;;;;4964727;28;20503;-92
2021/07/02 07:11:26;;;;;;;8.33;6.60;;;16.70;99.90;;;;;;4957257;28;20461;-92
2021/07/02 07:13:51;;;;;;;8.77;6.73;;;16.70;99.90;;;;;;4953972;28;20458;-90
2021/07/02 07:16:18;;;;;;;7.30;6.57;;;16.80;99.90;;;;;;4938615;28;20207;-89
2021/07/02 07:18:43;;;;;;;8.87;6.67;;;17.00;99.90;;;;;;4941894;28;20214;-89
2021/07/02 07:21:11;;;;;;;7.80;6.70;;;17.00;99.90;;;;;;4959047;28;20976;-93
2021/07/02 07:23:37;;;;;;;8.40;6.43;;;17.20;99.90;;;;;;4943402;28;20187;-95
2021/07/02 07:26:02;;;;;;;7.20;6.50;;;17.30;99.90;;;;;;4957793;28;20446;-94
2021/07/02 07:28:38;;;;;;;8.03;6.33;;;17.30;99.90;;;;;;4958107;28;20242;-92
2021/07/02 07:31:05;;;;;;;7.40;6.70;;;17.30;99.90;;;;;;4952521;28;20206;-92
2021/07/02 07:33:32;;;;;;;7.20;6.50;;;17.20;99.90;;;;;;4954049;28;20439;-93
2021/07/02 07:35:58;;;;;;;6.73;6.00;;;17.20;99.90;;;;;;4940575;28;20504;-91
2021/07/02 07:38:24;;;;;;;7.63;6.90;;;17.30;99.90;;;;;;4941256;28;20435;-91
2021/07/02 07:40:52;;;;;;;6.23;5.63;;;17.50;99.90;;;;;;4941167;28;20452;-93
2021/07/02 07:43:18;;;;;;;6.67;5.73;;;17.80;99.90;;;;;;4956031;28;20566;-91
2021/07/02 07:45:44;;;;;;;6.30;5.80;;;17.90;99.90;;;;;;4959718;28;20492;-90
2021/07/02 07:48:10;;;;;;;6.60;5.93;;;17.90;99.90;;;;;;4959540;28;20490;-90
2021/07/02 07:50:44;;;;;;;6.57;6.07;;;18.10;99.90;;;;;;4939153;28;20187;-88
2021/07/02 07:53:10;;;;;;;6.10;5.50;;;18.00;99.90;;;;;;4940558;28;20631;-92
2021/07/02 07:55:36;;;;;;;5.70;5.03;;;17.60;99.90;;;;;;4957416;28;20461;-92
2021/07/02 08:00:56;;;;;;;5.50;5.00;;;17.40;99.90;;;;;;4943857;28;20447;-89
2021/07/02 08:03:21;;;;;;;6.20;5.13;;;17.60;99.90;;;;;;4958203;28;20555;-89
2021/07/02 08:05:49;;;;;;;5.93;5.40;;;17.80;99.90;;;;;;4940798;28;20249;-91
2021/07/02 08:08:16;;;;;;;4.60;4.20;;;18.10;99.90;;;;;;4955219;28;20244;-88
2021/07/02 08:10:42;;;;;;;5.07;4.33;;;18.20;99.50;;;;;;4940641;28;20486;-87
2021/07/02 08:13:08;;;;;;;5.60;4.93;;;18.60;99.90;;;;;;4944532;28;20470;-88
2021/07/02 08:15:34;;;;;;;6.57;5.77;;;18.60;99.90;;;;;;4957348;28;20476;-88
2021/07/02 08:18:04;;;;;;;6.00;5.13;;;18.60;99.90;;;;;;4955492;28;20230;-93
2021/07/02 08:20:30;;;;;;;6.17;5.67;;;18.70;99.90;;;;;;4960170;28;20191;-90
2021/07/02 08:22:55;;;;;;;6.93;5.73;;;18.80;99.90;;;;;;4940459;28;20870;-94
2021/07/02 08:25:21;;;;;;;5.60;5.10;;;18.60;99.90;;;;;;4956999;28;20214;-92
2021/07/02 08:30:34;;;;;;;5.57;4.97;;;18.50;99.90;;;;;;4935939;28;20237;-91
2021/07/02 08:32:59;;;;;;;5.30;4.90;;;18.80;99.90;;;;;;4946992;28;20445;-89
2021/07/02 08:35:25;;;;;;;7.50;5.27;;;18.90;99.90;;;;;;4942839;28;22690;-89
2021/07/02 08:37:54;;;;;;;4.87;4.47;;;19.30;99.90;;;;;;4946501;28;20195;-91
2021/07/02 08:40:21;;;;;;;6.43;4.87;;;19.20;99.90;;;;;;4953505;28;20201;-92
2021/07/02 08:42:51;;;;;;;5.73;5.23;;;18.70;99.90;;;;;;4953616;28;20446;-91
2021/07/02 08:45:17;;;;;;;5.90;5.40;;;18.40;99.90;;;;;;4940615;28;22414;-92
2021/07/02 08:47:43;;;;;;;5.03;4.63;;;18.30;99.90;;;;;;4956220;28;20532;-89
2021/07/02 08:50:12;;;;;;;5.10;4.70;;;18.50;99.90;;;;;;4956627;28;20456;-90
2021/07/02 08:52:38;;;;;;;6.97;4.93;;;18.90;99.90;;;;;;4937288;28;20456;-91
2021/07/02 08:55:05;;;;;;;5.80;5.33;;;18.80;99.80;;;;;;4938882;28;20450;-90
2021/07/02 08:57:31;;;;;;;5.03;4.63;;;18.60;99.50;;;;;;4938679;28;20182;-93
2021/07/02 09:00:02;;;;;;;6.40;5.23;;;18.80;99.90;;;;;;4939981;28;20482;-92
2021/07/02 09:02:31;;;;;;;6.23;5.63;;;19.20;99.90;;;;;;4958450;28;20446;-90
2021/07/02 09:05:21;;;;;;;5.80;4.63;;;19.20;99.90;;;;;;4927518;28;20453;-93
2021/07/02 09:07:53;;;;;;;5.40;4.90;;;19.00;99.10;;;;;;4962715;28;20486;-91
2021/07/02 09:10:29;;;;;;;5.00;4.60;;;18.70;99.90;;;;;;4959460;28;20445;-91
2021/07/02 09:12:56;;;;;;;4.80;4.40;;;18.50;99.80;;;;;;4940122;28;20469;-91
2021/07/02 09:15:29;;;;;;;4.50;4.13;;;18.70;99.60;;;;;;4960678;28;20761;-93
2021/07/02 09:18:01;;;;;;;4.60;4.20;;;19.20;97.60;;;;;;4949737;28;20891;-91
2021/07/02 09:20:36;;;;;;;5.57;4.53;;;19.30;97.30;;;;;;4944098;28;20482;-93
2021/07/02 09:23:22;;;;;;;4.97;4.50;;;19.60;97.80;;;;;;4959336;28;20512;-91
2021/07/02 09:25:53;;;;;;;5.00;4.60;;;19.80;96.60;;;;;;4962806;28;20462;-92
2021/07/02 09:28:26;;;;;;;4.83;4.43;;;19.80;97.80;;;;;;4926169;28;20496;-93
2021/07/02 09:30:53;;;;;;;4.87;4.47;;;19.90;95.10;;;;;;4935264;28;20457;-92
2021/07/02 09:33:31;;;;;;;5.60;4.90;;;19.30;95.90;;;;;;4961109;28;20514;-93
2021/07/02 09:35:59;;;;;;;6.03;4.33;;;19.40;97.30;;;;;;4944152;28;20457;-92
2021/07/02 09:38:35;;;;;;;4.60;4.20;;;19.60;96.30;;;;;;4947785;28;20454;-94
2021/07/02 09:41:03;;;;;;;5.47;4.73;;;19.90;95.60;;;;;;4950972;28;20529;-94
2021/07/02 09:43:30;;;;;;;4.70;4.30;;;20.10;95.20;;;;;;4967044;28;20481;-92
2021/07/02 09:46:04;;;;;;;4.60;4.20;;;20.60;95.10;;;;;;4959636;28;20450;-90
2021/07/02 09:48:32;;;;;;;6.17;4.83;;;20.40;95.20;;;;;;4958965;28;20515;-91
2021/07/02 09:51:06;;;;;;;5.00;4.30;;;20.10;95.50;;;;;;4946281;28;20443;-91
2021/07/02 09:53:35;;;;;;;4.53;4.13;;;20.40;95.90;;;;;;4940350;28;20451;-90
2021/07/02 09:56:18;;;;;;;5.30;4.87;;;20.20;95.20;;;;;;4943316;28;20541;-92
2021/07/02 09:58:45;;;;;;;5.07;4.63;;;19.70;95.80;;;;;;4931533;28;20909;-88
2021/07/02 10:01:32;;;;;;;5.03;4.63;;;19.80;96.00;;;;;;4937879;28;20454;-90
2021/07/02 10:04:10;;;;;;;4.97;4.50;;;20.00;96.70;;;;;;4953295;28;20456;-90
2021/07/02 10:06:42;;;;;;;4.97;4.57;;;20.40;95.30;;;;;;4958668;28;20508;-95
2021/07/02 10:09:14;;;;;;;5.17;4.67;;;20.60;94.30;;;;;;4939697;28;20909;-91
2021/07/02 10:11:44;;;;;;;5.27;4.77;;;21.00;95.20;;;;;;4954454;28;20717;-91
2021/07/02 10:14:12;;;;;;;4.60;4.20;;;20.90;94.40;;;;;;4953798;28;20443;-93
2021/07/02 10:16:39;;;;;;;5.10;4.60;;;20.40;94.40;;;;;;4941249;28;20970;-94
2021/07/02 10:19:05;;;;;;;6.60;4.40;;;20.80;94.50;;;;;;4956755;28;20474;-94
2021/07/02 10:21:38;;;;;;;4.60;4.10;;;21.10;93.20;;;;;;4936977;28;20783;-92
2021/07/02 10:24:07;;;;;;;4.10;3.80;;;21.60;93.40;;;;;;4939227;28;20183;-94
2021/07/02 10:26:36;;;;;;;6.07;4.30;;;21.50;92.80;;;;;;4942004;28;20461;-92
2021/07/02 10:29:02;;;;;;;4.83;4.43;;;20.90;92.50;;;;;;4937758;28;21078;-92
2021/07/02 10:31:28;;;;;;;4.70;4.30;;;20.70;93.80;;;;;;4939649;28;20443;-90
2021/07/02 10:33:58;;;;;;;7.77;4.93;;;20.90;91.90;;;;;;4956692;28;20453;-90
2021/07/02 10:36:33;;;;;;;5.00;4.27;;;20.90;91.70;;;;;;4957631;28;20585;-90
2021/07/02 10:38:59;;;;;;;5.07;4.63;;;21.40;92.00;;;;;;4960995;28;20859;-91
2021/07/02 10:41:26;;;;;;;5.40;5.00;;;21.40;92.20;;;;;;4938836;28;20493;-92
2021/07/02 10:44:08;;;;;;;5.20;4.70;;;21.60;93.70;;;;;;4938810;28;20223;-89
2021/07/02 10:46:40;;;;;;;5.13;4.67;;;21.30;91.60;;;;;;4955889;28;20460;-91
2021/07/02 10:49:08;;;;;;;5.33;4.83;;;20.70;91.20;;;;;;4952663;28;20482;-91
2021/07/02 10:51:39;;;;;;;5.00;4.50;;;20.60;92.30;;;;;;4956963;28;20438;-89
2021/07/02 10:54:17;;;;;;;4.70;4.30;;;20.40;91.90;;;;;;4956534;28;20473;-90
2021/07/02 10:56:49;;;;;;;4.70;4.37;;;21.10;92.30;;;;;;4956410;28;20869;-92
2021/07/02 10:59:18;;;;;;;4.60;4.20;;;21.90;95.00;;;;;;4956843;28;20537;-90
2021/07/02 11:02:08;;;;;;;5.10;4.70;;;22.40;90.40;;;;;;4961148;28;20961;-91
2021/07/02 11:04:56;;;;;;;4.60;4.30;;;21.90;90.50;;;;;;4943724;28;20443;-89
2021/07/02 11:07:22;;;;;;;6.20;4.60;;;22.10;90.30;;;;;;4955120;28;20455;-90
2021/07/02 11:10:01;;;;;;;5.07;4.57;;;22.10;90.40;;;;;;4940249;28;20481;-90
2021/07/02 11:12:35;;;;;;;4.77;4.30;;;22.60;89.90;;;;;;4958057;28;20480;-89
2021/07/02 11:15:02;;;;;;;5.77;4.30;;;22.30;89.70;;;;;;4957206;28;20496;-89
2021/07/02 11:17:30;;;;;;;5.03;4.47;;;22.00;90.10;;;;;;4958494;28;20473;-89
2021/07/02 11:20:08;;;;;;;5.30;4.90;;;21.30;90.50;;;;;;4954036;28;20458;-90
2021/07/02 11:23:01;;;;;;;6.20;4.90;;;21.10;90.40;;;;;;4956083;28;20450;-90
2021/07/02 11:25:56;;;;;;;5.10;4.60;;;21.40;90.70;;;;;;4948098;28;20618;-90
2021/07/02 11:28:36;;;;;;;4.50;4.07;;;22.10;89.70;;;;;;4959948;28;20524;-91
2021/07/02 11:31:04;;;;;;;4.17;3.60;;;22.60;84.70;;;;;;4936612;28;20455;-92
2021/07/02 11:33:30;;;;;;;6.40;3.70;;;22.70;79.40;;;;;;4938418;28;20562;-92
2021/07/02 11:35:55;;;;;;;4.73;4.33;;;22.70;80.10;;;;;;4952315;28;20449;-89
2021/07/02 11:38:23;;;;;;;4.83;4.43;;;22.90;80.00;;;;;;4956520;28;20246;-91
2021/07/02 11:40:52;;;;;;;4.33;4.03;;;22.10;78.90;;;;;;4953315;28;20579;-89
2021/07/02 11:43:35;;;;;;;4.40;4.00;;;22.00;82.40;;;;;;4936667;28;20449;-88
2021/07/02 11:46:04;;;;;;;5.10;4.57;;;21.60;81.10;;;;;;4938290;28;20450;-91
2021/07/02 11:48:39;;;;;;;5.00;4.60;;;22.00;83.30;;;;;;4941667;28;20846;-91
2021/07/02 11:51:10;;;;;;;4.70;4.33;;;22.20;85.00;;;;;;4952562;28;20695;-90
2021/07/02 11:53:47;;;;;;;5.97;4.50;;;22.80;83.80;;;;;;4955119;28;20473;-90
2021/07/02 11:56:16;;;;;;;5.60;4.23;;;23.60;82.70;;;;;;4938610;28;20489;-92
2021/07/02 11:59:03;;;;;;;4.70;4.30;;;24.20;81.30;;;;;;4954312;28;20449;-90
2021/07/02 12:01:39;;;;;;;5.70;4.20;;;24.00;81.10;;;;;;4935515;28;20473;-92
2021/07/02 12:04:16;;;;;;;6.53;4.00;;;23.40;77.00;;;;;;4936442;28;20446;-89
2021/07/02 12:06:51;;;;;;;4.37;3.97;;;23.40;79.30;;;;;;4936958;28;20461;-90
2021/07/02 12:09:24;;;;;;;3.90;3.60;;;23.00;80.80;;;;;;4953346;28;20505;-89
2021/07/02 12:11:52;;;;;;;5.77;4.03;;;22.70;79.00;;;;;;4937181;28;20442;-92
2021/07/02 12:14:29;;;;;;;4.90;4.40;;;22.50;81.80;;;;;;4953501;28;20488;-91
2021/07/02 12:16:57;;;;;;;4.10;3.80;;;22.50;78.50;;;;;;4938736;28;20473;-89
2021/07/02 12:19:25;;;;;;;8.53;4.80;;;22.70;81.40;;;;;;4942522;28;20466;-90
2021/07/02 12:22:05;;;;;;;4.80;4.40;;;22.50;77.90;;;;;;4939350;28;20525;-92
2021/07/02 12:24:34;;;;;;;5.00;4.47;;;22.90;78.50;;;;;;4939593;28;20454;-92
2021/07/02 12:27:03;;;;;;;4.93;4.40;;;22.90;81.50;;;;;;4935383;28;20489;-91
2021/07/02 12:29:32;;;;;;;5.17;4.37;;;22.50;81.90;;;;;;4934641;28;20929;-91
2021/07/02 12:32:04;;;;;;;7.27;5.10;;;22.20;82.70;;;;;;4935460;28;20450;-90
2021/07/02 12:34:37;;;;;;;4.83;4.43;;;22.60;84.80;;;;;;4936368;28;20472;-92
2021/07/02 12:37:10;;;;;;;5.33;4.83;;;23.10;82.90;;;;;;4937278;28;20494;-91
2021/07/02 12:39:40;;;;;;;5.13;4.73;;;22.90;82.50;;;;;;4954678;28;20454;-91
2021/07/02 12:42:18;;;;;;;5.20;4.80;;;23.50;81.90;;;;;;4950577;28;20459;-92
2021/07/02 12:44:47;;;;;;;6.17;4.97;;;22.90;79.30;;;;;;4953628;28;20533;-93
2021/07/02 12:47:13;;;;;;;5.40;4.90;;;22.90;81.40;;;;;;4956117;28;21856;-91
2021/07/02 12:49:47;;;;;;;5.67;5.17;;;23.90;84.60;;;;;;4935502;28;21029;-93
2021/07/02 12:54:54;;;;;;;5.90;5.43;;;24.20;81.50;;;;;;4940810;28;20933;-92
2021/07/02 12:57:55;;;;;;;6.10;5.60;;;24.80;79.60;;;;;;4952684;28;20457;-93
2021/07/02 13:00:23;;;;;;;5.57;5.07;;;23.90;78.70;;;;;;4923851;28;20824;-94
2021/07/02 13:02:52;;;;;;;5.50;5.00;;;23.90;83.30;;;;;;4954420;28;21932;-91
2021/07/02 13:05:21;;;;;;;5.60;5.10;;;24.20;84.60;;;;;;4952176;28;20466;-89
2021/07/02 13:07:54;;;;;;;6.27;5.40;;;23.70;83.30;;;;;;4939297;28;20490;-90
2021/07/02 13:10:30;;;;;;;5.57;4.73;;;23.50;90.70;;;;;;4937227;28;20538;-89
2021/07/02 13:13:12;;;;;;;6.27;5.70;;;24.60;84.90;;;;;;4952769;28;20450;-91
2021/07/02 13:15:41;;;;;;;5.97;5.47;;;25.50;84.90;;;;;;4953172;28;20568;-91
2021/07/02 13:18:17;;;;;;;5.90;5.40;;;25.90;84.20;;;;;;4951602;28;21222;-89
2021/07/02 13:20:48;;;;;;;6.00;5.50;;;26.40;77.50;;;;;;4951502;28;20537;-90